Time;durP1;ratioP1;P1;durP2;ratioP2;P2;SDS_P1;SDS_P2;PMS_P1;PMS_P2;Temp;Humidity;BMP_temperature;BMP_pressure;BME280_temperature;BME280_humidity;BME280_pressure;Samples;Min_cycle;Max_cycle;Signal;HPM_P1;HPM_P2
2021/04/08 00:01:12;;;;;;;;;;;21.80;32.30;;;;;;463107;254;1193;-45
2021/04/08 00:03:13;;;;;;;;;;;21.80;32.30;;;;;;462942;257;1028;-45
2021/04/08 00:05:15;;;;;;;;;;;21.80;32.30;;;;;;462940;257;1051;-45
2021/04/08 00:07:16;;;;;;;;;;;21.80;32.30;;;;;;462922;257;973;-45
2021/04/08 00:09:17;;;;;;;;;;;21.80;32.30;;;;;;462908;257;1044;-45
2021/04/08 00:11:19;;;;;;;;;;;21.80;32.30;;;;;;463298;257;1153;-45
2021/04/08 00:13:20;;;;;;;;;;;21.80;32.30;;;;;;462936;257;1151;-45
2021/04/08 00:15:21;;;;;;;;;;;21.80;32.20;;;;;;462870;257;1018;-45
2021/04/08 00:17:22;;;;;;;;;;;21.80;32.30;;;;;;462963;257;2202;-45
2021/04/08 00:19:24;;;;;;;;;;;21.80;32.30;;;;;;462929;257;1070;-45
2021/04/08 00:21:25;;;;;;;;;;;21.80;32.30;;;;;;463050;257;1088;-45
2021/04/08 00:23:26;;;;;;;;;;;21.80;32.30;;;;;;463128;257;1186;-45
2021/04/08 00:25:27;;;;;;;;;;;21.80;32.20;;;;;;462811;257;1127;-44
2021/04/08 00:27:29;;;;;;;;;;;21.90;32.20;;;;;;462824;257;1136;-45
2021/04/08 00:29:30;;;;;;;;;;;21.90;32.20;;;;;;462887;257;1067;-45
2021/04/08 00:31:31;;;;;;;;;;;21.90;32.10;;;;;;462867;257;1188;-45
2021/04/08 00:33:33;;;;;;;;;;;21.90;32.10;;;;;;462910;257;1142;-45
2021/04/08 00:35:34;;;;;;;;;;;21.90;32.10;;;;;;462871;257;1322;-45
2021/04/08 00:37:35;;;;;;;;;;;21.90;32.10;;;;;;462956;257;2215;-45
2021/04/08 00:39:36;;;;;;;;;;;21.90;32.10;;;;;;462871;257;1110;-45
2021/04/08 00:41:38;;;;;;;;;;;22.00;32.10;;;;;;462995;257;1180;-45
2021/04/08 00:43:39;;;;;;;;;;;22.00;32.20;;;;;;462928;257;1178;-45
2021/04/08 00:45:40;;;;;;;;;;;21.90;32.10;;;;;;462860;257;1080;-45
2021/04/08 00:47:41;;;;;;;;;;;22.00;32.10;;;;;;463088;257;1046;-45
2021/04/08 00:49:43;;;;;;;;;;;21.90;32.10;;;;;;463064;257;1143;-45
2021/04/08 00:51:44;;;;;;;;;;;22.00;32.10;;;;;;462851;257;1120;-45
2021/04/08 00:53:46;;;;;;;;;;;22.00;32.10;;;;;;463017;257;1052;-45
2021/04/08 00:55:47;;;;;;;;;;;22.00;32.10;;;;;;462980;257;2152;-44
2021/04/08 00:57:48;;;;;;;;;;;22.00;32.10;;;;;;462951;257;1346;-45
2021/04/08 00:59:51;;;;;;;;;;;22.00;32.00;;;;;;462840;257;1132;-45
2021/04/08 01:01:52;;;;;;;;;;;22.00;32.00;;;;;;462967;257;2071;-45
2021/04/08 01:03:53;;;;;;;;;;;22.00;32.00;;;;;;462913;257;1155;-45
2021/04/08 01:05:54;;;;;;;;;;;22.00;32.00;;;;;;462929;257;1080;-45
2021/04/08 01:07:55;;;;;;;;;;;22.00;32.00;;;;;;462877;257;1056;-45
2021/04/08 01:09:57;;;;;;;;;;;22.10;32.10;;;;;;463177;257;1303;-45
2021/04/08 01:11:58;;;;;;;;;;;22.00;32.00;;;;;;462962;257;1053;-45
2021/04/08 01:13:59;;;;;;;;;;;22.00;32.10;;;;;;463013;257;1227;-45
2021/04/08 01:16:01;;;;;;;;;;;22.10;31.90;;;;;;462795;257;2148;-45
2021/04/08 01:18:02;;;;;;;;;;;21.90;32.20;;;;;;463027;257;1071;-44
2021/04/08 01:20:03;;;;;;;;;;;21.20;33.10;;;;;;462931;257;1213;-45
2021/04/08 01:22:04;;;;;;;;;;;20.70;34.00;;;;;;462958;257;1210;-44
2021/04/08 01:24:06;;;;;;;;;;;20.40;34.70;;;;;;462940;257;1133;-45
2021/04/08 01:26:07;;;;;;;;;;;20.10;35.30;;;;;;463264;257;1389;-44
2021/04/08 01:28:08;;;;;;;;;;;19.90;35.70;;;;;;462971;257;1208;-44
2021/04/08 01:30:10;;;;;;;;;;;19.70;36.00;;;;;;462942;257;1072;-44
2021/04/08 01:32:11;;;;;;;;;;;19.60;36.20;;;;;;462949;257;1219;-44
2021/04/08 01:34:12;;;;;;;;;;;19.50;36.30;;;;;;462938;257;1250;-44
2021/04/08 01:36:13;;;;;;;;;;;19.40;36.50;;;;;;462857;257;2207;-44
2021/04/08 01:38:15;;;;;;;;;;;19.40;36.60;;;;;;462936;257;1055;-44
2021/04/08 01:40:16;;;;;;;;;;;19.30;36.60;;;;;;462908;257;1075;-44
2021/04/08 01:42:17;;;;;;;;;;;19.30;36.80;;;;;;463012;257;1175;-44
2021/04/08 01:44:19;;;;;;;;;;;19.20;36.90;;;;;;462977;257;1193;-45
2021/04/08 01:46:20;;;;;;;;;;;19.10;37.00;;;;;;462875;257;1179;-44
2021/04/08 01:48:21;;;;;;;;;;;19.00;37.10;;;;;;462912;257;1274;-44
2021/04/08 01:50:23;;;;;;;;;;;19.00;37.30;;;;;;462898;257;1079;-44
2021/04/08 01:52:24;;;;;;;;;;;19.00;37.30;;;;;;462958;257;1198;-44
2021/04/08 01:54:25;;;;;;;;;;;19.00;37.30;;;;;;463226;257;1098;-44
2021/04/08 01:56:27;;;;;;;;;;;18.90;37.30;;;;;;462848;257;2207;-44
2021/04/08 01:58:28;;;;;;;;;;;18.90;37.50;;;;;;462993;257;1184;-45
2021/04/08 02:00:29;;;;;;;;;;;18.90;37.50;;;;;;462943;257;1112;-45
2021/04/08 02:02:30;;;;;;;;;;;18.80;37.50;;;;;;463341;257;1165;-44
2021/04/08 02:04:32;;;;;;;;;;;18.80;37.60;;;;;;463340;257;1077;-44
2021/04/08 02:06:33;;;;;;;;;;;18.70;37.60;;;;;;463278;257;1088;-45
2021/04/08 02:08:34;;;;;;;;;;;18.70;37.60;;;;;;463136;257;1112;-44
2021/04/08 02:10:36;;;;;;;;;;;18.70;37.70;;;;;;462944;257;1073;-45
2021/04/08 02:12:37;;;;;;;;;;;18.60;37.70;;;;;;463024;257;1023;-44
2021/04/08 02:14:38;;;;;;;;;;;18.60;37.70;;;;;;462924;257;1195;-44
2021/04/08 02:16:39;;;;;;;;;;;18.60;37.80;;;;;;463112;257;2156;-44
2021/04/08 02:18:41;;;;;;;;;;;18.60;37.80;;;;;;463012;257;1075;-44
2021/04/08 02:20:42;;;;;;;;;;;18.60;37.70;;;;;;462887;257;1071;-44
2021/04/08 02:22:43;;;;;;;;;;;18.60;37.70;;;;;;462924;257;1064;-44
2021/04/08 02:24:45;;;;;;;;;;;18.60;37.80;;;;;;462950;257;1102;-44
2021/04/08 02:26:46;;;;;;;;;;;18.60;37.80;;;;;;463010;257;1066;-44
2021/04/08 02:28:47;;;;;;;;;;;18.50;37.80;;;;;;462974;257;1199;-44
2021/04/08 02:30:48;;;;;;;;;;;18.50;37.90;;;;;;463070;257;1037;-44
2021/04/08 02:32:50;;;;;;;;;;;18.50;38.00;;;;;;463087;257;1030;-44
2021/04/08 02:34:51;;;;;;;;;;;18.40;38.00;;;;;;463050;257;1128;-44
2021/04/08 02:36:52;;;;;;;;;;;18.40;38.00;;;;;;462857;257;2160;-44
2021/04/08 02:38:54;;;;;;;;;;;18.40;37.90;;;;;;462866;257;1072;-44
2021/04/08 02:40:55;;;;;;;;;;;18.40;37.90;;;;;;462895;257;1053;-44
2021/04/08 02:42:56;;;;;;;;;;;18.40;38.00;;;;;;463064;257;1081;-44
2021/04/08 02:44:57;;;;;;;;;;;18.30;38.00;;;;;;462941;257;1149;-44
2021/04/08 02:46:59;;;;;;;;;;;18.40;38.10;;;;;;463203;257;1058;-44
2021/04/08 02:49:00;;;;;;;;;;;18.30;38.10;;;;;;463356;257;1045;-44
2021/04/08 02:51:01;;;;;;;;;;;18.30;38.00;;;;;;462899;257;1212;-44
2021/04/08 02:53:02;;;;;;;;;;;18.30;38.10;;;;;;463334;257;1181;-45
2021/04/08 02:55:04;;;;;;;;;;;18.20;38.10;;;;;;462993;257;1068;-44
2021/04/08 02:57:05;;;;;;;;;;;18.20;38.20;;;;;;462870;257;2201;-44
2021/04/08 02:59:06;;;;;;;;;;;18.20;38.20;;;;;;462971;257;1147;-45
2021/04/08 03:01:08;;;;;;;;;;;18.20;38.30;;;;;;463171;257;1453;-44
2021/04/08 03:03:09;;;;;;;;;;;18.20;38.20;;;;;;462909;257;1215;-44
2021/04/08 03:05:10;;;;;;;;;;;18.20;38.30;;;;;;462934;257;1013;-44
2021/04/08 03:07:11;;;;;;;;;;;18.20;38.40;;;;;;463121;257;1176;-44
2021/04/08 03:09:13;;;;;;;;;;;18.10;38.40;;;;;;463021;257;1071;-44
2021/04/08 03:11:14;;;;;;;;;;;18.10;38.30;;;;;;463016;257;1250;-44
2021/04/08 03:13:15;;;;;;;;;;;18.10;38.40;;;;;;463152;257;1318;-44
2021/04/08 03:15:16;;;;;;;;;;;18.10;38.30;;;;;;462929;257;1186;-44
2021/04/08 03:17:18;;;;;;;;;;;18.10;38.40;;;;;;462891;257;2199;-45
2021/04/08 03:19:19;;;;;;;;;;;18.10;38.40;;;;;;462925;257;1140;-44
2021/04/08 03:21:20;;;;;;;;;;;18.00;38.40;;;;;;462859;254;1339;-44
2021/04/08 03:23:22;;;;;;;;;;;18.00;38.40;;;;;;462917;257;1249;-44
2021/04/08 03:25:23;;;;;;;;;;;18.00;38.40;;;;;;463001;257;1103;-45
2021/04/08 03:27:24;;;;;;;;;;;18.00;38.40;;;;;;463127;257;1286;-44
2021/04/08 03:29:25;;;;;;;;;;;18.00;38.40;;;;;;462947;257;1272;-44
2021/04/08 03:31:27;;;;;;;;;;;18.00;38.50;;;;;;462917;257;1086;-44
2021/04/08 03:33:28;;;;;;;;;;;18.00;38.50;;;;;;463000;257;1111;-44
2021/04/08 03:35:29;;;;;;;;;;;18.00;38.40;;;;;;462978;257;1085;-44
2021/04/08 03:37:31;;;;;;;;;;;18.00;38.40;;;;;;463108;257;2207;-45
2021/04/08 03:39:32;;;;;;;;;;;18.00;38.50;;;;;;463027;257;1057;-44
2021/04/08 03:41:33;;;;;;;;;;;17.90;38.50;;;;;;462861;257;1057;-44
2021/04/08 03:43:34;;;;;;;;;;;18.00;38.50;;;;;;463117;257;1085;-44
2021/04/08 03:45:36;;;;;;;;;;;17.90;38.40;;;;;;462923;257;1436;-44
2021/04/08 03:47:37;;;;;;;;;;;17.90;38.50;;;;;;462993;257;1086;-44
2021/04/08 03:49:38;;;;;;;;;;;17.90;38.50;;;;;;463207;257;1075;-44
2021/04/08 03:51:39;;;;;;;;;;;17.90;38.40;;;;;;462802;257;1188;-44
2021/04/08 03:53:41;;;;;;;;;;;17.90;38.50;;;;;;462945;257;1170;-44
2021/04/08 03:55:43;;;;;;;;;;;17.90;38.50;;;;;;463086;257;1047;-45
2021/04/08 03:57:43;;;;;;;;;;;17.90;38.50;;;;;;462753;257;2190;-44
2021/04/08 03:59:45;;;;;;;;;;;17.90;38.50;;;;;;463027;257;1292;-44
2021/04/08 04:01:46;;;;;;;;;;;18.00;38.20;;;;;;462828;257;1175;-45
2021/04/08 04:03:47;;;;;;;;;;;18.40;37.50;;;;;;462974;255;1379;-45
2021/04/08 04:05:48;;;;;;;;;;;18.90;36.50;;;;;;462991;257;1308;-44
2021/04/08 04:07:51;;;;;;;;;;;19.20;35.90;;;;;;462828;257;1252;-44
2021/04/08 04:09:51;;;;;;;;;;;19.50;35.50;;;;;;463272;257;2458;-45
2021/04/08 04:11:52;;;;;;;;;;;19.60;35.10;;;;;;463023;257;1534;-44
2021/04/08 04:13:54;;;;;;;;;;;19.80;34.90;;;;;;462989;257;1051;-45
2021/04/08 04:15:55;;;;;;;;;;;19.90;34.60;;;;;;462925;257;1281;-45
2021/04/08 04:17:56;;;;;;;;;;;20.00;34.50;;;;;;463109;257;2203;-45
2021/04/08 04:19:58;;;;;;;;;;;20.10;34.30;;;;;;462910;257;1061;-45
2021/04/08 04:21:59;;;;;;;;;;;20.20;34.20;;;;;;462882;257;1222;-45
2021/04/08 04:24:00;;;;;;;;;;;20.20;34.10;;;;;;462850;257;1197;-45
2021/04/08 04:26:01;;;;;;;;;;;20.30;34.00;;;;;;462833;254;1429;-45
2021/04/08 04:28:03;;;;;;;;;;;20.30;33.90;;;;;;462828;257;1108;-45
2021/04/08 04:30:04;;;;;;;;;;;20.40;33.90;;;;;;462766;257;1188;-45
2021/04/08 04:32:05;;;;;;;;;;;20.40;33.80;;;;;;462873;257;1276;-45
2021/04/08 04:34:07;;;;;;;;;;;20.40;33.70;;;;;;462994;257;1089;-45
2021/04/08 04:36:08;;;;;;;;;;;20.50;33.60;;;;;;462757;257;1148;-45
2021/04/08 04:38:09;;;;;;;;;;;20.50;33.60;;;;;;462789;257;2215;-45
2021/04/08 04:40:10;;;;;;;;;;;20.60;33.50;;;;;;462710;257;1157;-45
2021/04/08 04:42:12;;;;;;;;;;;20.60;33.50;;;;;;462870;257;1467;-45
2021/04/08 04:44:13;;;;;;;;;;;20.60;33.40;;;;;;462819;257;1098;-45
2021/04/08 04:46:14;;;;;;;;;;;20.60;33.40;;;;;;462826;257;1273;-44
2021/04/08 04:48:16;;;;;;;;;;;20.70;33.40;;;;;;462918;257;1064;-44
2021/04/08 04:50:17;;;;;;;;;;;20.70;33.30;;;;;;462867;256;1479;-44
2021/04/08 04:52:18;;;;;;;;;;;20.70;33.30;;;;;;462811;257;1057;-45
2021/04/08 04:54:19;;;;;;;;;;;20.80;33.30;;;;;;462771;257;1123;-44
2021/04/08 04:56:21;;;;;;;;;;;20.80;33.30;;;;;;462702;257;1105;-45
2021/04/08 04:58:22;;;;;;;;;;;20.80;33.20;;;;;;462694;257;2191;-45
2021/04/08 05:00:23;;;;;;;;;;;20.80;33.10;;;;;;462687;257;1284;-45
2021/04/08 05:02:24;;;;;;;;;;;20.80;33.10;;;;;;462666;257;1107;-45
2021/04/08 05:04:26;;;;;;;;;;;20.90;33.20;;;;;;462702;257;1070;-45
2021/04/08 05:06:27;;;;;;;;;;;20.90;33.10;;;;;;462642;257;1148;-45
2021/04/08 05:08:28;;;;;;;;;;;20.90;33.10;;;;;;462576;257;1083;-45
2021/04/08 05:10:30;;;;;;;;;;;20.90;33.00;;;;;;462622;257;1125;-45
2021/04/08 05:12:31;;;;;;;;;;;20.90;33.00;;;;;;462721;257;1228;-45
2021/04/08 05:14:33;;;;;;;;;;;21.00;33.00;;;;;;462683;257;1100;-45
2021/04/08 05:16:34;;;;;;;;;;;21.00;32.90;;;;;;462629;257;1197;-45
2021/04/08 05:18:36;;;;;;;;;;;21.00;32.90;;;;;;462752;257;2215;-45
2021/04/08 05:20:37;;;;;;;;;;;21.00;32.90;;;;;;462681;257;1233;-44
2021/04/08 05:22:38;;;;;;;;;;;21.00;32.90;;;;;;462712;257;1063;-45
2021/04/08 05:24:39;;;;;;;;;;;21.10;32.90;;;;;;462830;257;1181;-45
2021/04/08 05:26:41;;;;;;;;;;;21.10;32.80;;;;;;462628;257;1089;-45
2021/04/08 05:28:42;;;;;;;;;;;21.10;32.80;;;;;;462648;257;1130;-45
2021/04/08 05:30:43;;;;;;;;;;;21.10;32.80;;;;;;462582;257;1197;-45
2021/04/08 05:32:45;;;;;;;;;;;21.10;32.80;;;;;;462591;257;1191;-45
2021/04/08 05:34:46;;;;;;;;;;;21.10;32.70;;;;;;462678;257;1098;-45
2021/04/08 05:36:47;;;;;;;;;;;21.20;32.70;;;;;;462641;257;1459;-45
2021/04/08 05:38:48;;;;;;;;;;;21.20;32.70;;;;;;462800;257;2218;-45
2021/04/08 05:40:50;;;;;;;;;;;21.20;32.70;;;;;;462662;257;1194;-45
2021/04/08 05:42:51;;;;;;;;;;;21.20;32.60;;;;;;462638;257;1244;-45
2021/04/08 05:44:52;;;;;;;;;;;21.20;32.70;;;;;;462580;257;1064;-45
2021/04/08 05:46:53;;;;;;;;;;;21.20;32.70;;;;;;462636;257;1265;-45
2021/04/08 05:48:55;;;;;;;;;;;21.20;32.60;;;;;;462582;257;1053;-45
2021/04/08 05:50:56;;;;;;;;;;;21.30;32.70;;;;;;462527;257;1103;-45
2021/04/08 05:52:57;;;;;;;;;;;21.20;32.60;;;;;;462358;257;1122;-45
2021/04/08 05:54:59;;;;;;;;;;;21.30;32.70;;;;;;462388;257;1079;-45
2021/04/08 05:57:00;;;;;;;;;;;21.30;32.60;;;;;;462476;257;1116;-45
2021/04/08 05:59:01;;;;;;;;;;;21.30;32.60;;;;;;462570;257;2191;-45
2021/04/08 06:01:02;;;;;;;;;;;21.30;32.60;;;;;;462469;257;1176;-45
2021/04/08 06:03:04;;;;;;;;;;;21.30;32.60;;;;;;462389;257;1224;-45
2021/04/08 06:05:05;;;;;;;;;;;21.30;32.60;;;;;;462344;257;1258;-45
2021/04/08 06:07:06;;;;;;;;;;;21.30;32.60;;;;;;462383;257;1260;-45
2021/04/08 06:09:08;;;;;;;;;;;21.30;32.60;;;;;;462397;257;1071;-45
2021/04/08 06:11:09;;;;;;;;;;;21.30;32.60;;;;;;462436;257;1338;-45
2021/04/08 06:13:10;;;;;;;;;;;21.30;32.60;;;;;;462455;257;1105;-45
2021/04/08 06:15:12;;;;;;;;;;;21.30;32.60;;;;;;462631;257;1200;-45
2021/04/08 06:17:13;;;;;;;;;;;21.40;32.60;;;;;;462538;257;1218;-45
2021/04/08 06:19:14;;;;;;;;;;;21.40;32.60;;;;;;462502;257;2195;-45
2021/04/08 06:21:15;;;;;;;;;;;21.40;32.60;;;;;;462434;257;1124;-45
2021/04/08 06:23:17;;;;;;;;;;;21.40;32.60;;;;;;462529;257;1077;-45
2021/04/08 06:25:18;;;;;;;;;;;21.40;32.60;;;;;;462353;257;1170;-45
2021/04/08 06:27:19;;;;;;;;;;;21.40;32.50;;;;;;462345;257;1199;-45
2021/04/08 06:29:20;;;;;;;;;;;21.40;32.60;;;;;;462464;257;1754;-44
2021/04/08 06:31:22;;;;;;;;;;;21.40;32.60;;;;;;462284;257;1391;-45
2021/04/08 06:33:23;;;;;;;;;;;21.40;32.60;;;;;;462523;257;1211;-45
2021/04/08 06:35:25;;;;;;;;;;;21.40;32.70;;;;;;462525;257;1084;-45
2021/04/08 06:37:26;;;;;;;;;;;21.40;32.70;;;;;;462459;257;1312;-45
2021/04/08 06:39:28;;;;;;;;;;;21.40;32.70;;;;;;462553;257;2155;-44
2021/04/08 06:41:28;;;;;;;;;;;21.40;32.70;;;;;;462454;257;1834;-45
2021/04/08 06:43:29;;;;;;;;;;;21.40;32.70;;;;;;462252;257;1706;-45
2021/04/08 06:45:31;;;;;;;;;;;21.40;32.70;;;;;;462369;257;1168;-45
2021/04/08 06:47:32;;;;;;;;;;;21.40;32.70;;;;;;462334;257;1146;-45
2021/04/08 06:49:34;;;;;;;;;;;21.40;32.80;;;;;;462223;257;1090;-44
2021/04/08 06:51:35;;;;;;;;;;;21.30;32.70;;;;;;462277;257;1416;-45
2021/04/08 06:53:36;;;;;;;;;;;21.40;32.80;;;;;;462454;257;1144;-45
2021/04/08 06:55:37;;;;;;;;;;;21.40;32.70;;;;;;462402;257;1084;-45
2021/04/08 06:57:40;;;;;;;;;;;21.40;32.70;;;;;;462390;257;1116;-45
2021/04/08 06:59:40;;;;;;;;;;;21.40;32.80;;;;;;462428;257;2202;-45
2021/04/08 07:01:42;;;;;;;;;;;21.40;32.70;;;;;;462242;257;1222;-45
2021/04/08 07:03:43;;;;;;;;;;;21.40;32.70;;;;;;462343;257;1074;-45
2021/04/08 07:05:45;;;;;;;;;;;21.40;32.70;;;;;;462157;257;1399;-45
2021/04/08 07:07:45;;;;;;;;;;;21.40;32.80;;;;;;462206;257;1368;-45
2021/04/08 07:09:47;;;;;;;;;;;21.40;32.80;;;;;;462116;257;1100;-45
2021/04/08 07:11:48;;;;;;;;;;;21.40;32.80;;;;;;461922;257;1095;-45
2021/04/08 07:13:49;;;;;;;;;;;21.40;32.80;;;;;;462102;257;1117;-45
2021/04/08 07:15:51;;;;;;;;;;;21.40;32.80;;;;;;462028;257;1131;-45
2021/04/08 07:17:52;;;;;;;;;;;21.40;32.80;;;;;;462218;257;1156;-45
2021/04/08 07:19:53;;;;;;;;;;;21.40;32.80;;;;;;462258;257;2195;-45
2021/04/08 07:21:54;;;;;;;;;;;21.40;32.70;;;;;;462331;257;1183;-45
2021/04/08 07:23:56;;;;;;;;;;;21.40;32.70;;;;;;462211;257;1313;-45
2021/04/08 07:25:57;;;;;;;;;;;21.40;32.70;;;;;;462071;257;1191;-45
2021/04/08 07:27:59;;;;;;;;;;;21.40;32.70;;;;;;462091;257;1208;-45
2021/04/08 07:30:00;;;;;;;;;;;21.40;32.70;;;;;;462296;257;1234;-44
2021/04/08 07:32:01;;;;;;;;;;;21.40;32.70;;;;;;462389;256;1184;-44
2021/04/08 07:34:03;;;;;;;;;;;21.40;32.80;;;;;;462624;257;1075;-45
2021/04/08 07:36:04;;;;;;;;;;;21.40;32.80;;;;;;462114;254;1192;-45
2021/04/08 07:38:05;;;;;;;;;;;21.40;32.70;;;;;;462184;257;2207;-45
2021/04/08 07:40:07;;;;;;;;;;;21.40;32.70;;;;;;462124;257;1197;-45
2021/04/08 07:42:08;;;;;;;;;;;21.40;32.70;;;;;;462100;257;1233;-45
2021/04/08 07:44:09;;;;;;;;;;;21.50;32.70;;;;;;461539;257;1093;-45
2021/04/08 07:46:10;;;;;;;;;;;21.50;32.70;;;;;;461927;257;1401;-45
2021/04/08 07:48:12;;;;;;;;;;;21.50;32.70;;;;;;462216;257;1207;-45
2021/04/08 07:50:15;;;;;;;;;;;21.40;32.70;;;;;;462194;257;1111;-45
2021/04/08 07:52:14;;;;;;;;;;;21.40;32.70;;;;;;462186;257;1468;-45
2021/04/08 07:54:16;;;;;;;;;;;21.50;32.80;;;;;;462306;257;1075;-45
2021/04/08 07:56:17;;;;;;;;;;;21.50;32.70;;;;;;462267;257;1209;-45
2021/04/08 07:58:19;;;;;;;;;;;21.50;32.70;;;;;;462294;257;2207;-45
2021/04/08 08:00:19;;;;;;;;;;;21.50;32.70;;;;;;462099;257;1375;-45
2021/04/08 08:02:21;;;;;;;;;;;21.50;32.70;;;;;;462191;257;1198;-45
2021/04/08 08:04:22;;;;;;;;;;;21.50;32.70;;;;;;462102;257;1119;-45
2021/04/08 08:06:23;;;;;;;;;;;21.40;32.70;;;;;;462120;257;1139;-45
2021/04/08 08:08:25;;;;;;;;;;;21.50;32.70;;;;;;462358;257;1106;-45
2021/04/08 08:10:26;;;;;;;;;;;21.50;32.70;;;;;;462090;257;1075;-45
2021/04/08 08:12:28;;;;;;;;;;;21.50;32.70;;;;;;462162;257;1072;-45
2021/04/08 08:14:29;;;;;;;;;;;21.50;32.70;;;;;;462379;257;1141;-45
2021/04/08 08:16:31;;;;;;;;;;;21.50;32.70;;;;;;462258;257;1212;-44
2021/04/08 08:18:32;;;;;;;;;;;21.50;32.70;;;;;;462187;257;2230;-45
2021/04/08 08:20:33;;;;;;;;;;;21.50;32.70;;;;;;462128;257;1114;-44
2021/04/08 08:22:34;;;;;;;;;;;21.50;32.70;;;;;;461913;257;1100;-44
2021/04/08 08:24:35;;;;;;;;;;;21.50;32.60;;;;;;462029;257;1137;-45
2021/04/08 08:26:37;;;;;;;;;;;21.50;32.60;;;;;;462210;257;1133;-45
2021/04/08 08:28:38;;;;;;;;;;;21.50;32.60;;;;;;462134;257;1072;-45
2021/04/08 08:30:52;;;;;;;;;;;21.50;32.60;;;;;;462065;257;1156;-45
2021/04/08 08:32:53;;;;;;;;;;;21.50;32.60;;;;;;462177;257;1178;-44
2021/04/08 08:34:55;;;;;;;;;;;21.50;32.60;;;;;;462084;257;1105;-45
2021/04/08 08:36:56;;;;;;;;;;;21.50;32.60;;;;;;462165;257;1106;-45
2021/04/08 08:38:57;;;;;;;;;;;21.50;32.60;;;;;;462192;257;2167;-44
2021/04/08 08:40:58;;;;;;;;;;;21.50;32.60;;;;;;462054;257;1097;-45
2021/04/08 08:43:00;;;;;;;;;;;21.50;32.60;;;;;;462090;257;1080;-45
2021/04/08 08:45:01;;;;;;;;;;;21.50;32.60;;;;;;462016;257;1138;-45
2021/04/08 08:47:02;;;;;;;;;;;21.50;32.60;;;;;;462202;257;1251;-45
2021/04/08 08:49:04;;;;;;;;;;;21.60;32.60;;;;;;462097;257;1240;-45
2021/04/08 08:51:05;;;;;;;;;;;21.60;32.60;;;;;;462033;257;1120;-45
2021/04/08 08:53:06;;;;;;;;;;;21.50;32.60;;;;;;462073;257;1141;-45
2021/04/08 08:55:08;;;;;;;;;;;21.50;32.60;;;;;;462148;257;1112;-45
2021/04/08 08:57:09;;;;;;;;;;;21.50;32.60;;;;;;462047;257;1118;-45
2021/04/08 08:59:10;;;;;;;;;;;21.60;32.60;;;;;;462401;257;2210;-45
2021/04/08 09:01:12;;;;;;;;;;;21.50;32.50;;;;;;462286;257;1132;-45
2021/04/08 09:03:13;;;;;;;;;;;21.50;32.60;;;;;;462247;257;1143;-45
2021/04/08 09:05:16;;;;;;;;;;;21.60;32.60;;;;;;462232;257;1104;-45
2021/04/08 09:07:16;;;;;;;;;;;21.60;32.60;;;;;;461810;258;1384;-45
2021/04/08 09:09:19;;;;;;;;;;;21.60;32.60;;;;;;462057;257;1155;-45
2021/04/08 09:11:18;;;;;;;;;;;21.60;32.60;;;;;;461736;258;2365;-45
2021/04/08 09:13:19;;;;;;;;;;;21.60;32.60;;;;;;462122;257;1607;-45
2021/04/08 09:15:21;;;;;;;;;;;21.50;32.50;;;;;;462159;257;1115;-45
2021/04/08 09:17:22;;;;;;;;;;;21.60;32.60;;;;;;462126;257;1371;-45
2021/04/08 09:19:23;;;;;;;;;;;21.60;32.50;;;;;;462247;257;2199;-44
2021/04/08 09:21:24;;;;;;;;;;;21.60;32.60;;;;;;462123;257;1225;-45
2021/04/08 09:23:26;;;;;;;;;;;21.60;32.50;;;;;;462326;257;1239;-45
2021/04/08 09:25:27;;;;;;;;;;;21.60;32.50;;;;;;462246;257;1125;-45
2021/04/08 09:27:28;;;;;;;;;;;21.60;32.50;;;;;;462130;257;1238;-45
2021/04/08 09:29:30;;;;;;;;;;;21.60;32.50;;;;;;462088;257;1127;-45
2021/04/08 09:31:31;;;;;;;;;;;21.60;32.50;;;;;;462073;257;1248;-45
2021/04/08 09:33:32;;;;;;;;;;;21.60;32.50;;;;;;462648;257;1508;-45
2021/04/08 09:35:33;;;;;;;;;;;21.60;32.50;;;;;;462066;257;1157;-45
2021/04/08 09:37:35;;;;;;;;;;;21.60;32.60;;;;;;462287;257;1210;-45
2021/04/08 09:39:36;;;;;;;;;;;21.60;32.50;;;;;;462144;257;2212;-45
2021/04/08 09:41:37;;;;;;;;;;;21.60;32.50;;;;;;462306;257;1367;-45
2021/04/08 09:43:39;;;;;;;;;;;21.60;32.50;;;;;;462309;257;1148;-45
2021/04/08 09:45:40;;;;;;;;;;;21.60;32.50;;;;;;462323;257;1130;-45
2021/04/08 09:47:41;;;;;;;;;;;21.60;32.40;;;;;;462296;257;1501;-44
2021/04/08 09:49:42;;;;;;;;;;;21.70;32.40;;;;;;462229;257;1152;-45
2021/04/08 09:51:45;;;;;;;;;;;21.60;32.40;;;;;;462116;257;1152;-44
2021/04/08 09:53:45;;;;;;;;;;;21.60;32.40;;;;;;462108;257;1127;-45
2021/04/08 09:55:47;;;;;;;;;;;21.70;32.40;;;;;;462014;257;1324;-44
2021/04/08 09:57:49;;;;;;;;;;;21.60;32.30;;;;;;461954;257;1176;-45
2021/04/08 09:59:50;;;;;;;;;;;21.60;32.40;;;;;;461868;257;2203;-45
2021/04/08 10:01:52;;;;;;;;;;;21.70;32.40;;;;;;461909;257;1229;-45
2021/04/08 10:03:53;;;;;;;;;;;21.60;32.30;;;;;;462126;257;1221;-45
2021/04/08 10:05:54;;;;;;;;;;;21.60;32.40;;;;;;462289;257;1114;-44
2021/04/08 10:07:55;;;;;;;;;;;21.60;32.40;;;;;;462151;257;1250;-45
2021/04/08 10:09:57;;;;;;;;;;;21.60;32.40;;;;;;462105;257;1169;-45
2021/04/08 10:11:58;;;;;;;;;;;21.60;32.40;;;;;;462090;257;1282;-45
2021/04/08 10:13:59;;;;;;;;;;;21.70;32.40;;;;;;462075;257;1165;-44
2021/04/08 10:16:00;;;;;;;;;;;21.70;32.40;;;;;;462040;257;1140;-44
2021/04/08 10:18:02;;;;;;;;;;;21.60;32.40;;;;;;462134;257;1208;-45
2021/04/08 10:20:04;;;;;;;;;;;21.60;32.30;;;;;;462219;257;2202;-45
2021/04/08 10:22:06;;;;;;;;;;;21.70;32.30;;;;;;462213;257;1173;-45
2021/04/08 10:24:07;;;;;;;;;;;21.70;32.30;;;;;;462256;257;1078;-45
2021/04/08 10:26:08;;;;;;;;;;;21.70;32.30;;;;;;462085;257;1320;-45
2021/04/08 10:28:09;;;;;;;;;;;21.70;32.30;;;;;;462056;257;1231;-45
2021/04/08 10:30:11;;;;;;;;;;;21.70;32.30;;;;;;462074;257;1280;-45
2021/04/08 10:32:12;;;;;;;;;;;21.70;32.30;;;;;;462008;257;1159;-44
2021/04/08 10:34:14;;;;;;;;;;;21.70;32.30;;;;;;462121;257;1225;-45
2021/04/08 10:36:15;;;;;;;;;;;21.70;32.40;;;;;;462332;257;2214;-45
2021/04/08 10:38:16;;;;;;;;;;;21.70;32.30;;;;;;462222;257;1090;-45
2021/04/08 10:40:17;;;;;;;;;;;21.70;32.30;;;;;;462279;257;2156;-45
2021/04/08 10:42:20;;;;;;;;;;;21.70;32.30;;;;;;462155;257;1094;-45
2021/04/08 10:44:20;;;;;;;;;;;21.70;32.30;;;;;;461521;257;1227;-45
2021/04/08 10:46:21;;;;;;;;;;;21.70;32.30;;;;;;462265;257;1219;-45
2021/04/08 10:48:23;;;;;;;;;;;21.70;32.40;;;;;;462319;255;1355;-45
2021/04/08 10:50:24;;;;;;;;;;;21.60;32.40;;;;;;462086;257;1214;-44
2021/04/08 10:52:25;;;;;;;;;;;21.70;32.40;;;;;;462112;257;1213;-45
2021/04/08 10:54:26;;;;;;;;;;;21.70;32.30;;;;;;462145;257;1058;-45
2021/04/08 10:56:28;;;;;;;;;;;21.70;32.30;;;;;;462097;257;1144;-45
2021/04/08 10:58:29;;;;;;;;;;;21.70;32.30;;;;;;462180;257;1166;-45
2021/04/08 11:00:30;;;;;;;;;;;21.70;32.30;;;;;;462132;257;2190;-45
2021/04/08 11:02:32;;;;;;;;;;;21.70;32.30;;;;;;462185;257;1173;-45
2021/04/08 11:04:33;;;;;;;;;;;21.70;32.30;;;;;;462203;257;1206;-45
2021/04/08 11:06:34;;;;;;;;;;;21.60;32.30;;;;;;462138;257;1256;-45
2021/04/08 11:08:35;;;;;;;;;;;21.70;32.30;;;;;;462271;257;1194;-45
2021/04/08 11:10:37;;;;;;;;;;;21.70;32.30;;;;;;462177;257;1179;-45
2021/04/08 11:12:39;;;;;;;;;;;21.70;32.30;;;;;;462259;257;1151;-45
2021/04/08 11:14:40;;;;;;;;;;;21.70;32.20;;;;;;462250;257;1110;-45
2021/04/08 11:16:41;;;;;;;;;;;21.70;32.30;;;;;;462180;257;1493;-45
2021/04/08 11:18:43;;;;;;;;;;;21.70;32.30;;;;;;462181;257;1244;-45
2021/04/08 11:20:44;;;;;;;;;;;21.70;32.30;;;;;;462125;257;2171;-45
2021/04/08 11:22:45;;;;;;;;;;;21.70;32.30;;;;;;462382;257;1186;-45
2021/04/08 11:24:47;;;;;;;;;;;21.70;32.30;;;;;;462073;257;1248;-45
2021/04/08 11:26:48;;;;;;;;;;;21.70;32.20;;;;;;461981;257;1377;-45
2021/04/08 11:28:49;;;;;;;;;;;21.70;32.20;;;;;;462152;257;1132;-45
2021/04/08 11:30:50;;;;;;;;;;;21.70;32.30;;;;;;462135;257;1141;-45
2021/04/08 11:32:52;;;;;;;;;;;21.70;32.30;;;;;;462281;257;1241;-45
2021/04/08 11:34:53;;;;;;;;;;;21.70;32.30;;;;;;462275;257;1188;-45
2021/04/08 11:36:54;;;;;;;;;;;21.70;32.30;;;;;;462136;257;1272;-45
2021/04/08 11:38:55;;;;;;;;;;;21.70;32.30;;;;;;462259;257;1101;-45
2021/04/08 11:40:57;;;;;;;;;;;21.70;32.20;;;;;;462212;257;2198;-46
2021/04/08 11:42:58;;;;;;;;;;;21.80;32.30;;;;;;462570;257;1140;-45
2021/04/08 11:44:59;;;;;;;;;;;21.70;32.20;;;;;;462221;257;1154;-45
2021/04/08 11:47:01;;;;;;;;;;;21.80;32.30;;;;;;462326;257;1154;-45
2021/04/08 11:49:02;;;;;;;;;;;21.70;32.20;;;;;;462067;257;1131;-45
2021/04/08 11:51:03;;;;;;;;;;;21.70;32.20;;;;;;462130;254;1377;-45
2021/04/08 11:53:04;;;;;;;;;;;21.70;32.20;;;;;;462137;257;1155;-44
2021/04/08 11:55:06;;;;;;;;;;;21.70;32.30;;;;;;462079;257;1077;-45
2021/04/08 11:57:07;;;;;;;;;;;21.70;32.30;;;;;;461991;257;1164;-45